Time;durP1;ratioP1;P1;durP2;ratioP2;P2;SDS_P1;SDS_P2;PMS_P1;PMS_P2;Temp;Humidity;BMP_temperature;BMP_pressure;BME280_temperature;BME280_humidity;BME280_pressure;Samples;Min_cycle;Max_cycle;Signal;HPM_P1;HPM_P2
2021/07/24 00:01:32;;;;;;;19.55;2.70;;;;;;;;;;4989541;28;20018;-41
2021/07/24 00:03:59;;;;;;;17.65;2.85;;;;;;;;;;4989318;28;20041;-42
2021/07/24 00:06:26;;;;;;;16.90;2.90;;;;;;;;;;4990155;28;20525;-36
2021/07/24 00:08:53;;;;;;;17.90;2.30;;;;;;;;;;4987188;28;20479;-34
2021/07/24 00:11:20;;;;;;;21.42;2.95;;;;;;;;;;4988714;28;20656;-35
2021/07/24 00:13:47;;;;;;;22.88;2.70;;;;;;;;;;4988803;28;20014;-37
2021/07/24 00:16:14;;;;;;;22.13;2.78;;;;;;;;;;4988659;28;20100;-36
2021/07/24 00:18:41;;;;;;;24.10;3.20;;;;;;;;;;4989220;28;20019;-39
2021/07/24 00:21:08;;;;;;;19.75;2.83;;;;;;;;;;4981893;28;20014;-40
2021/07/24 00:23:35;;;;;;;31.00;2.88;;;;;;;;;;4990669;28;20058;-36
2021/07/24 00:26:03;;;;;;;18.27;2.90;;;;;;;;;;4989604;28;20082;-35
2021/07/24 00:28:30;;;;;;;17.65;2.30;;;;;;;;;;4992005;28;20022;-36
2021/07/24 00:30:57;;;;;;;21.45;2.78;;;;;;;;;;4990579;28;20058;-39
2021/07/24 00:33:24;;;;;;;21.38;2.53;;;;;;;;;;4991542;28;20022;-37
2021/07/24 00:35:51;;;;;;;22.40;2.97;;;;;;;;;;4983609;28;20438;-39
2021/07/24 00:38:18;;;;;;;36.97;3.30;;;;;;;;;;4988418;28;20471;-37
2021/07/24 00:40:49;;;;;;;20.08;2.60;;;;;;;;;;4989800;28;20038;-39
2021/07/24 00:43:17;;;;;;;25.75;3.78;;;;;;;;;;4988947;28;20027;-39
2021/07/24 00:45:48;;;;;;;20.50;3.13;;;;;;;;;;4988527;28;20753;-39
2021/07/24 00:48:22;;;;;;;17.63;2.53;;;;;;;;;;4988414;28;20105;-39
2021/07/24 00:50:51;;;;;;;40.53;3.30;;;;;;;;;;4988820;28;20065;-41
2021/07/24 00:53:22;;;;;;;20.65;2.72;;;;;;;;;;4988228;28;20026;-39
2021/07/24 00:55:53;;;;;;;22.03;2.50;;;;;;;;;;4988740;28;20120;-38
2021/07/24 00:58:23;;;;;;;17.90;2.53;;;;;;;;;;4989164;28;20033;-37
2021/07/24 01:00:50;;;;;;;17.10;2.55;;;;;;;;;;4990535;28;20105;-38
2021/07/24 01:03:17;;;;;;;20.02;2.60;;;;;;;;;;4988148;28;20471;-37
2021/07/24 01:05:45;;;;;;;21.85;2.75;;;;;;;;;;4990229;28;20034;-41
2021/07/24 01:08:12;;;;;;;22.20;3.03;;;;;;;;;;4989355;28;20406;-35
2021/07/24 01:10:39;;;;;;;23.20;2.90;;;;;;;;;;4988721;28;20030;-38
2021/07/24 01:13:07;;;;;;;14.65;2.58;;;;;;;;;;4988686;28;20026;-37
2021/07/24 01:15:34;;;;;;;27.08;2.60;;;;;;;;;;4985509;28;20065;-35
2021/07/24 01:18:01;;;;;;;16.20;3.10;;;;;;;;;;4989097;28;20410;-39
2021/07/24 01:20:28;;;;;;;14.13;2.58;;;;;;;;;;4987711;28;20482;-37
2021/07/24 01:22:56;;;;;;;17.52;2.35;;;;;;;;;;4988608;28;20080;-38
2021/07/24 01:25:23;;;;;;;22.88;2.83;;;;;;;;;;4983406;28;20045;-37
2021/07/24 01:27:50;;;;;;;26.90;3.03;;;;;;;;;;4987969;28;20027;-40
2021/07/24 01:30:17;;;;;;;17.73;2.50;;;;;;;;;;4988238;28;21366;-41
2021/07/24 01:32:44;;;;;;;23.55;3.00;;;;;;;;;;4988214;28;20033;-34
2021/07/24 01:35:12;;;;;;;18.48;2.85;;;;;;;;;;4986060;28;20026;-34
2021/07/24 01:37:39;;;;;;;21.55;2.60;;;;;;;;;;4986137;28;20034;-38
2021/07/24 01:40:06;;;;;;;11.77;2.10;;;;;;;;;;4987183;28;20378;-39
2021/07/24 01:42:33;;;;;;;21.75;2.58;;;;;;;;;;4987073;28;20037;-36
2021/07/24 01:45:00;;;;;;;21.35;2.97;;;;;;;;;;4986297;28;20030;-41
2021/07/24 01:47:27;;;;;;;18.75;2.10;;;;;;;;;;4988226;28;20055;-39
2021/07/24 01:52:48;;;;;;;26.15;2.60;;;;;;;;;;4990159;28;20521;-38
2021/07/24 01:55:35;;;;;;;19.33;2.75;;;;;;;;;;4990288;28;20053;-40
2021/07/24 01:58:04;;;;;;;17.88;2.70;;;;;;;;;;4988061;28;20068;-40
2021/07/24 02:00:32;;;;;;;19.70;2.45;;;;;;;;;;4990095;28;20475;-41
2021/07/24 02:03:00;;;;;;;13.85;2.20;;;;;;;;;;4990315;28;20023;-34
2021/07/24 02:05:47;;;;;;;17.25;2.15;;;;;;;;;;4990094;28;20085;-39
2021/07/24 02:08:19;;;;;;;19.00;2.65;;;;;;;;;;4990530;28;20019;-36
2021/07/24 02:10:46;;;;;;;11.95;2.20;;;;;;;;;;4987513;28;20077;-37
2021/07/24 02:13:14;;;;;;;19.60;2.22;;;;;;;;;;4991305;28;20036;-42
2021/07/24 02:15:41;;;;;;;13.00;2.03;;;;;;;;;;4993992;28;20463;-37
2021/07/24 02:18:09;;;;;;;12.20;1.73;;;;;;;;;;4994421;28;20026;-39
2021/07/24 02:20:38;;;;;;;15.68;2.30;;;;;;;;;;4994075;28;20053;-37
2021/07/24 02:23:05;;;;;;;10.65;2.00;;;;;;;;;;4992131;28;20549;-39
2021/07/24 02:25:32;;;;;;;16.40;1.90;;;;;;;;;;4993998;28;20383;-37
2021/07/24 02:27:59;;;;;;;21.30;2.35;;;;;;;;;;4994597;28;20026;-36
2021/07/24 02:30:26;;;;;;;18.35;2.47;;;;;;;;;;4994106;28;20045;-41
2021/07/24 02:32:53;;;;;;;16.27;2.42;;;;;;;;;;4994604;28;20053;-35
2021/07/24 02:35:20;;;;;;;12.77;2.13;;;;;;;;;;4994536;28;20102;-37
2021/07/24 02:37:47;;;;;;;15.75;2.35;;;;;;;;;;4993937;28;20157;-37
2021/07/24 02:40:14;;;;;;;17.85;2.15;;;;;;;;;;4994608;28;20351;-46
2021/07/24 02:42:41;;;;;;;13.43;1.92;;;;;;;;;;4993930;28;20018;-38
2021/07/24 02:45:08;;;;;;;11.48;2.13;;;;;;;;;;4994184;28;20030;-40
2021/07/24 02:47:35;;;;;;;13.13;2.42;;;;;;;;;;4993726;28;20073;-40
2021/07/24 02:50:02;;;;;;;18.25;2.20;;;;;;;;;;4994430;28;20045;-37
2021/07/24 02:52:29;;;;;;;14.90;1.77;;;;;;;;;;4993664;28;20369;-35
2021/07/24 02:54:56;;;;;;;14.65;1.80;;;;;;;;;;4993783;28;20098;-42
2021/07/24 02:57:23;;;;;;;12.40;1.70;;;;;;;;;;4991308;28;20019;-41
2021/07/24 02:59:50;;;;;;;10.95;1.73;;;;;;;;;;4994381;28;20366;-41
2021/07/24 03:02:18;;;;;;;8.45;1.92;;;;;;;;;;4993775;28;20101;-37
2021/07/24 03:04:45;;;;;;;13.27;2.10;;;;;;;;;;4993856;28;20026;-38
2021/07/24 03:07:12;;;;;;;6.80;1.52;;;;;;;;;;4993480;28;20033;-37
2021/07/24 03:09:39;;;;;;;8.68;1.63;;;;;;;;;;4992396;28;20441;-40
2021/07/24 03:12:07;;;;;;;13.88;1.80;;;;;;;;;;4991478;28;20022;-36
2021/07/24 03:14:34;;;;;;;14.95;2.35;;;;;;;;;;4984983;28;20121;-39
2021/07/24 03:17:01;;;;;;;11.18;1.80;;;;;;;;;;4992110;28;20058;-40
2021/07/24 03:19:28;;;;;;;13.40;2.20;;;;;;;;;;4992019;28;20018;-37
2021/07/24 03:21:55;;;;;;;8.93;1.38;;;;;;;;;;4992557;28;20061;-36
2021/07/24 03:24:22;;;;;;;6.95;1.77;;;;;;;;;;4991338;28;20097;-34
2021/07/24 03:26:49;;;;;;;31.88;3.45;;;;;;;;;;4993240;28;20022;-34
2021/07/24 03:29:16;;;;;;;14.93;1.85;;;;;;;;;;4992978;28;20678;-34
2021/07/24 03:31:43;;;;;;;11.57;2.40;;;;;;;;;;4993568;28;20061;-37
2021/07/24 03:34:10;;;;;;;9.32;1.95;;;;;;;;;;4993088;28;20022;-37
2021/07/24 03:36:37;;;;;;;14.88;1.40;;;;;;;;;;4993367;28;20030;-33
2021/07/24 03:39:04;;;;;;;11.07;1.67;;;;;;;;;;4992807;28;20034;-37
2021/07/24 03:41:34;;;;;;;10.18;1.80;;;;;;;;;;4993620;28;20089;-35
2021/07/24 03:44:01;;;;;;;9.45;1.45;;;;;;;;;;4990685;28;20065;-40
2021/07/24 03:46:28;;;;;;;11.48;2.05;;;;;;;;;;4993215;28;20085;-36
2021/07/24 03:48:55;;;;;;;11.48;1.60;;;;;;;;;;4994100;28;20109;-33
2021/07/24 03:51:22;;;;;;;8.88;1.55;;;;;;;;;;4994064;28;20509;-36
2021/07/24 03:53:49;;;;;;;14.48;1.58;;;;;;;;;;4993991;28;20149;-35
2021/07/24 03:56:17;;;;;;;7.03;1.17;;;;;;;;;;4994242;28;20030;-39
2021/07/24 03:58:45;;;;;;;13.70;1.85;;;;;;;;;;4994072;28;20030;-37
2021/07/24 04:01:12;;;;;;;15.75;2.08;;;;;;;;;;4993775;28;20053;-40
2021/07/24 04:03:39;;;;;;;13.27;1.50;;;;;;;;;;4993706;28;20478;-37
2021/07/24 04:06:08;;;;;;;11.13;2.03;;;;;;;;;;4993151;28;20034;-40
2021/07/24 04:08:36;;;;;;;7.60;1.48;;;;;;;;;;4992474;28;20105;-37
2021/07/24 04:11:05;;;;;;;9.20;1.30;;;;;;;;;;4993855;28;20023;-34
2021/07/24 04:13:35;;;;;;;8.32;1.30;;;;;;;;;;4993970;28;20030;-35
2021/07/24 04:16:02;;;;;;;11.13;1.50;;;;;;;;;;4993751;28;20038;-37
2021/07/24 04:18:32;;;;;;;10.70;1.30;;;;;;;;;;4993763;28;20149;-36
2021/07/24 04:20:59;;;;;;;8.45;1.30;;;;;;;;;;4993666;28;20023;-37
2021/07/24 04:23:29;;;;;;;5.90;1.40;;;;;;;;;;4993666;28;20113;-34
2021/07/24 04:25:56;;;;;;;6.97;1.60;;;;;;;;;;4993925;28;20034;-40
2021/07/24 04:28:23;;;;;;;8.50;1.42;;;;;;;;;;4993598;28;20025;-37
2021/07/24 04:30:50;;;;;;;5.03;1.23;;;;;;;;;;4992519;28;20560;-37
2021/07/24 04:33:17;;;;;;;12.02;1.50;;;;;;;;;;4993453;28;20466;-36
2021/07/24 04:35:45;;;;;;;5.65;1.50;;;;;;;;;;4990666;28;20429;-36
2021/07/24 04:38:12;;;;;;;5.97;1.70;;;;;;;;;;4999326;28;20026;-36
2021/07/24 04:40:39;;;;;;;7.82;1.40;;;;;;;;;;5012727;28;20101;-37
2021/07/24 04:43:06;;;;;;;4.60;1.33;;;;;;;;;;5012666;28;20029;-34
2021/07/24 04:45:33;;;;;;;4.20;1.17;;;;;;;;;;5012566;28;20126;-37
2021/07/24 04:48:00;;;;;;;8.43;1.40;;;;;;;;;;5012437;28;20022;-36
2021/07/24 04:50:28;;;;;;;6.85;1.73;;;;;;;;;;5011879;28;20113;-37
2021/07/24 04:52:56;;;;;;;4.88;1.35;;;;;;;;;;5012699;28;20014;-35
2021/07/24 04:55:24;;;;;;;7.57;1.20;;;;;;;;;;5012187;28;20093;-39
2021/07/24 04:57:52;;;;;;;7.40;1.33;;;;;;;;;;5012619;28;20461;-38
2021/07/24 05:00:19;;;;;;;11.30;1.58;;;;;;;;;;5011978;28;20528;-35
2021/07/24 05:02:46;;;;;;;3.80;0.85;;;;;;;;;;5012542;28;20048;-38
2021/07/24 05:05:14;;;;;;;7.00;1.52;;;;;;;;;;5011641;28;20540;-38
2021/07/24 05:07:41;;;;;;;4.50;1.05;;;;;;;;;;5012677;28;20034;-38
2021/07/24 05:10:09;;;;;;;4.85;1.00;;;;;;;;;;5011584;28;20022;-35
2021/07/24 05:12:36;;;;;;;3.75;1.02;;;;;;;;;;5012151;28;20036;-36
2021/07/24 05:15:04;;;;;;;4.72;1.00;;;;;;;;;;5012035;28;20049;-35
2021/07/24 05:17:31;;;;;;;10.95;1.25;;;;;;;;;;5012045;28;20050;-36
2021/07/24 05:19:58;;;;;;;3.80;0.88;;;;;;;;;;5011680;28;20033;-34
2021/07/24 05:22:25;;;;;;;3.80;0.98;;;;;;;;;;5027146;28;20022;-35
2021/07/24 05:24:52;;;;;;;8.15;1.17;;;;;;;;;;5012375;28;20045;-36
2021/07/24 05:27:19;;;;;;;4.70;0.95;;;;;;;;;;5011879;28;20067;-35
2021/07/24 05:29:46;;;;;;;3.30;1.15;;;;;;;;;;5012166;28;20022;-38
2021/07/24 05:32:13;;;;;;;5.45;1.02;;;;;;;;;;5011642;28;20022;-38
2021/07/24 05:34:40;;;;;;;6.38;1.67;;;;;;;;;;5012080;28;20488;-38
2021/07/24 05:37:07;;;;;;;6.10;1.15;;;;;;;;;;5011525;28;20022;-40
2021/07/24 05:39:34;;;;;;;7.15;1.25;;;;;;;;;;5011888;28;20030;-39
2021/07/24 05:42:01;;;;;;;5.30;1.27;;;;;;;;;;5011335;28;20026;-37
2021/07/24 05:44:28;;;;;;;7.55;1.20;;;;;;;;;;5027109;28;20434;-43
2021/07/24 05:46:58;;;;;;;4.65;0.90;;;;;;;;;;5011669;28;20105;-38
2021/07/24 05:49:25;;;;;;;3.35;1.15;;;;;;;;;;5011022;28;20034;-42
2021/07/24 05:51:52;;;;;;;4.65;1.02;;;;;;;;;;5011433;28;20482;-43
2021/07/24 05:54:22;;;;;;;5.10;1.00;;;;;;;;;;5011908;28;20385;-42
2021/07/24 05:56:52;;;;;;;4.97;0.70;;;;;;;;;;5012047;28;20026;-42
2021/07/24 05:59:19;;;;;;;10.02;1.38;;;;;;;;;;5009917;28;20025;-45
2021/07/24 06:01:46;;;;;;;4.72;1.17;;;;;;;;;;5011786;28;20080;-44
2021/07/24 06:04:14;;;;;;;4.13;0.93;;;;;;;;;;5011197;28;20054;-44
2021/07/24 06:06:41;;;;;;;4.18;1.00;;;;;;;;;;5011672;28;20034;-43
2021/07/24 06:09:08;;;;;;;4.63;1.23;;;;;;;;;;5011420;28;20076;-44
2021/07/24 06:11:35;;;;;;;3.20;0.80;;;;;;;;;;5011634;28;20076;-42
2021/07/24 06:14:02;;;;;;;2.83;0.80;;;;;;;;;;5011267;28;20096;-39
2021/07/24 06:16:29;;;;;;;5.15;1.05;;;;;;;;;;5010351;28;20446;-41
2021/07/24 06:18:56;;;;;;;5.75;0.98;;;;;;;;;;5011224;28;20025;-40
2021/07/24 06:21:23;;;;;;;4.47;1.00;;;;;;;;;;5011521;28;20482;-42
2021/07/24 06:23:50;;;;;;;4.47;0.80;;;;;;;;;;5011294;28;20025;-39
2021/07/24 06:26:17;;;;;;;3.33;1.00;;;;;;;;;;5011453;28;20041;-35
2021/07/24 06:28:44;;;;;;;5.30;0.80;;;;;;;;;;4985995;28;20022;-35
2021/07/24 06:31:11;;;;;;;3.15;0.88;;;;;;;;;;4991317;28;20574;-39
2021/07/24 06:33:38;;;;;;;3.85;0.80;;;;;;;;;;4991665;28;20050;-36
2021/07/24 06:36:05;;;;;;;4.75;0.90;;;;;;;;;;4991075;28;20041;-39
2021/07/24 06:38:32;;;;;;;4.70;0.95;;;;;;;;;;4990233;28;20014;-40
2021/07/24 06:41:00;;;;;;;3.38;0.80;;;;;;;;;;4989438;28;20027;-38
2021/07/24 06:43:27;;;;;;;4.45;1.00;;;;;;;;;;4991748;28;20036;-38
2021/07/24 06:45:54;;;;;;;2.65;0.90;;;;;;;;;;4991015;28;20030;-37
2021/07/24 06:48:21;;;;;;;2.85;0.98;;;;;;;;;;4991892;28;20027;-38
2021/07/24 06:50:48;;;;;;;1.90;0.63;;;;;;;;;;4989031;28;20489;-36
2021/07/24 06:53:15;;;;;;;4.35;0.80;;;;;;;;;;4990033;28;20485;-37
2021/07/24 06:55:42;;;;;;;5.88;0.90;;;;;;;;;;4991385;28;20041;-38
2021/07/24 06:58:09;;;;;;;3.90;0.80;;;;;;;;;;4991601;28;20057;-37
2021/07/24 07:00:36;;;;;;;3.88;1.13;;;;;;;;;;4992569;28;20026;-37
2021/07/24 07:03:03;;;;;;;1.30;0.50;;;;;;;;;;4994128;28;20464;-39
2021/07/24 07:05:32;;;;;;;3.53;0.85;;;;;;;;;;4993667;28;20490;-35
2021/07/24 07:07:59;;;;;;;4.65;0.90;;;;;;;;;;4994484;28;20022;-38
2021/07/24 07:10:26;;;;;;;4.15;0.80;;;;;;;;;;4994943;28;20363;-40
2021/07/24 07:12:53;;;;;;;2.30;0.80;;;;;;;;;;4994282;28;20518;-40
2021/07/24 07:15:20;;;;;;;3.53;0.70;;;;;;;;;;4993641;28;20022;-37
2021/07/24 07:17:47;;;;;;;2.05;0.52;;;;;;;;;;4993357;28;20065;-36
2021/07/24 07:20:14;;;;;;;4.38;0.75;;;;;;;;;;4994695;28;20026;-41
2021/07/24 07:22:41;;;;;;;2.50;0.70;;;;;;;;;;4992599;28;20430;-41
2021/07/24 07:25:08;;;;;;;5.72;0.75;;;;;;;;;;4994875;28;20031;-41
2021/07/24 07:27:35;;;;;;;2.28;0.70;;;;;;;;;;4992789;28;20701;-41
2021/07/24 07:30:02;;;;;;;3.30;0.70;;;;;;;;;;4993651;28;20026;-38
2021/07/24 07:32:29;;;;;;;3.17;1.20;;;;;;;;;;4994299;28;20029;-37
2021/07/24 07:34:56;;;;;;;2.05;0.70;;;;;;;;;;4994311;28;20030;-38
2021/07/24 07:37:23;;;;;;;2.17;0.63;;;;;;;;;;4994485;28;20030;-35
2021/07/24 07:39:50;;;;;;;4.88;0.85;;;;;;;;;;4992365;28;20022;-36
2021/07/24 07:42:18;;;;;;;2.88;0.63;;;;;;;;;;4993437;28;20014;-39
2021/07/24 07:44:45;;;;;;;3.13;0.60;;;;;;;;;;4993327;28;20026;-37
2021/07/24 07:47:12;;;;;;;4.60;0.70;;;;;;;;;;4994555;28;20034;-35
2021/07/24 07:49:39;;;;;;;4.30;0.70;;;;;;;;;;4993916;28;20018;-39
2021/07/24 07:52:07;;;;;;;2.35;0.88;;;;;;;;;;4991789;28;20022;-37
2021/07/24 07:54:35;;;;;;;2.85;0.77;;;;;;;;;;4992174;28;20042;-38
2021/07/24 07:57:02;;;;;;;4.07;0.93;;;;;;;;;;4994062;28;20089;-44
2021/07/24 07:59:32;;;;;;;2.35;0.60;;;;;;;;;;4993628;28;20027;-41
2021/07/24 08:01:59;;;;;;;2.78;0.80;;;;;;;;;;4993826;28;20060;-41
2021/07/24 08:04:26;;;;;;;2.83;0.70;;;;;;;;;;4991490;28;20022;-38
2021/07/24 08:06:52;;;;;;;3.85;0.73;;;;;;;;;;4994057;28;20030;-38
2021/07/24 08:09:19;;;;;;;1.15;0.50;;;;;;;;;;4993967;28;20446;-38
2021/07/24 08:11:47;;;;;;;1.73;0.65;;;;;;;;;;4993224;28;20026;-38
2021/07/24 08:14:14;;;;;;;3.88;0.63;;;;;;;;;;4993823;28;20019;-40
2021/07/24 08:16:44;;;;;;;2.85;0.90;;;;;;;;;;4991002;28;20049;-40
2021/07/24 08:19:11;;;;;;;2.65;0.77;;;;;;;;;;4993991;28;20058;-35
2021/07/24 08:21:38;;;;;;;2.60;0.60;;;;;;;;;;4993157;28;20023;-38
2021/07/24 08:24:05;;;;;;;3.63;0.80;;;;;;;;;;4993559;28;20026;-38
2021/07/24 08:26:32;;;;;;;2.45;0.70;;;;;;;;;;4993056;28;20061;-35
2021/07/24 08:28:59;;;;;;;1.05;0.45;;;;;;;;;;4991704;28;20137;-35
2021/07/24 08:31:26;;;;;;;3.60;0.70;;;;;;;;;;4992556;28;20482;-40
2021/07/24 08:33:53;;;;;;;2.20;0.50;;;;;;;;;;4992551;28;20025;-40
2021/07/24 08:36:20;;;;;;;3.05;0.70;;;;;;;;;;4993115;28;20053;-38
2021/07/24 08:38:47;;;;;;;2.33;0.60;;;;;;;;;;4988068;28;20031;-39
2021/07/24 08:41:15;;;;;;;3.35;0.70;;;;;;;;;;4974341;28;20022;-40
2021/07/24 08:43:45;;;;;;;5.38;0.90;;;;;;;;;;4973200;28;20023;-40
2021/07/24 08:46:13;;;;;;;3.70;0.73;;;;;;;;;;4972768;28;20394;-40
2021/07/24 08:48:40;;;;;;;1.50;0.60;;;;;;;;;;4973524;28;20034;-40
2021/07/24 08:51:08;;;;;;;2.58;0.75;;;;;;;;;;4973759;28;20475;-39
2021/07/24 08:53:37;;;;;;;3.55;0.75;;;;;;;;;;4973151;28;20085;-39
2021/07/24 08:56:07;;;;;;;3.70;0.95;;;;;;;;;;4973805;28;20069;-37
2021/07/24 08:58:35;;;;;;;3.88;0.80;;;;;;;;;;4973460;28;20497;-39
2021/07/24 09:01:03;;;;;;;2.17;0.50;;;;;;;;;;4973723;28;20034;-36
2021/07/24 09:03:34;;;;;;;2.22;0.52;;;;;;;;;;4972923;28;20021;-34
2021/07/24 09:06:01;;;;;;;2.58;0.70;;;;;;;;;;4973614;28;20491;-37
2021/07/24 09:08:28;;;;;;;4.38;0.90;;;;;;;;;;4973223;28;20109;-36
2021/07/24 09:10:57;;;;;;;4.50;0.70;;;;;;;;;;4973513;28;20216;-39
2021/07/24 09:13:24;;;;;;;2.25;0.70;;;;;;;;;;4988016;28;20031;-35
2021/07/24 09:15:54;;;;;;;1.77;0.80;;;;;;;;;;4972854;28;20031;-39
2021/07/24 09:18:22;;;;;;;1.88;0.75;;;;;;;;;;4973562;28;20106;-40
2021/07/24 09:20:50;;;;;;;4.68;1.23;;;;;;;;;;4972874;28;20023;-37
2021/07/24 09:23:27;;;;;;;4.13;0.70;;;;;;;;;;4972562;28;20557;-37
2021/07/24 09:25:54;;;;;;;1.70;0.40;;;;;;;;;;4972783;28;20542;-38
2021/07/24 09:28:21;;;;;;;2.30;0.70;;;;;;;;;;4973517;28;20110;-37
2021/07/24 09:30:48;;;;;;;5.68;0.65;;;;;;;;;;4973091;28;20031;-40
2021/07/24 09:33:16;;;;;;;2.88;0.50;;;;;;;;;;4971731;28;20374;-38
2021/07/24 09:36:03;;;;;;;3.95;0.63;;;;;;;;;;4972751;28;20026;-39
2021/07/24 09:38:37;;;;;;;2.80;0.60;;;;;;;;;;4973287;28;20147;-40
2021/07/24 09:41:05;;;;;;;2.25;0.60;;;;;;;;;;4973176;28;20031;-39
2021/07/24 09:43:40;;;;;;;2.67;0.70;;;;;;;;;;4972891;28;20011;-36
2021/07/24 09:46:19;;;;;;;1.92;0.63;;;;;;;;;;4987378;28;20030;-36
2021/07/24 09:48:50;;;;;;;2.50;0.70;;;;;;;;;;4987881;28;20034;-36
2021/07/24 09:51:31;;;;;;;2.38;0.50;;;;;;;;;;4973252;28;20042;-38
2021/07/24 09:53:58;;;;;;;1.38;0.40;;;;;;;;;;4972879;28;20539;-39
2021/07/24 09:56:39;;;;;;;1.63;0.70;;;;;;;;;;4973167;28;20484;-38
2021/07/24 09:59:19;;;;;;;3.80;0.60;;;;;;;;;;4972374;28;20547;-37
2021/07/24 10:01:53;;;;;;;2.08;0.60;;;;;;;;;;4973117;28;20038;-38
2021/07/24 10:04:27;;;;;;;4.35;0.63;;;;;;;;;;4972122;28;20026;-36
2021/07/24 10:06:58;;;;;;;2.78;0.70;;;;;;;;;;4973088;28;20035;-38
2021/07/24 10:09:30;;;;;;;1.30;0.53;;;;;;;;;;4972651;28;20023;-35
2021/07/24 10:11:58;;;;;;;5.03;0.80;;;;;;;;;;4972856;28;20282;-38
2021/07/24 10:14:25;;;;;;;1.90;0.60;;;;;;;;;;4972202;28;20051;-38
2021/07/24 10:16:57;;;;;;;3.25;0.60;;;;;;;;;;4971555;28;20051;-37
2021/07/24 10:19:25;;;;;;;2.53;0.75;;;;;;;;;;4972521;28;20383;-41
2021/07/24 10:21:53;;;;;;;2.40;0.50;;;;;;;;;;4972846;28;20023;-42
2021/07/24 10:24:20;;;;;;;2.88;0.75;;;;;;;;;;4972091;28;20074;-39
2021/07/24 10:26:58;;;;;;;2.92;0.75;;;;;;;;;;4972867;28;20114;-45
2021/07/24 10:29:28;;;;;;;3.80;0.75;;;;;;;;;;4972121;28;20030;-43
2021/07/24 10:32:00;;;;;;;3.88;0.52;;;;;;;;;;4971414;28;20109;-42
2021/07/24 10:34:27;;;;;;;;;;;;;;;;;;4973904;28;20027;-42
2021/07/24 10:36:54;;;;;;;2.83;0.40;;;;;;;;;;4976516;28;19913;-37
2021/07/24 10:39:22;;;;;;;2.85;0.70;;;;;;;;;;4976096;28;20027;-39
2021/07/24 10:41:50;;;;;;;2.00;0.47;;;;;;;;;;4976243;28;20027;-37
2021/07/24 10:44:38;;;;;;;1.30;0.50;;;;;;;;;;4976079;28;20039;-37
2021/07/24 10:47:05;;;;;;;1.95;0.52;;;;;;;;;;4976225;28;20026;-39
2021/07/24 10:49:35;;;;;;;1.77;0.60;;;;;;;;;;4975994;28;20554;-40
2021/07/24 10:52:03;;;;;;;2.55;0.75;;;;;;;;;;4975570;28;20027;-38
2021/07/24 10:54:31;;;;;;;1.75;0.55;;;;;;;;;;4976121;28;20078;-38
2021/07/24 10:56:58;;;;;;;3.50;0.65;;;;;;;;;;4974353;28;20026;-36
2021/07/24 10:59:29;;;;;;;2.90;0.80;;;;;;;;;;4976054;28;20054;-40
2021/07/24 11:01:56;;;;;;;3.28;0.60;;;;;;;;;;4975499;28;20514;-38
2021/07/24 11:04:38;;;;;;;3.38;0.60;;;;;;;;;;4975901;28;20078;-35
2021/07/24 11:07:14;;;;;;;2.25;0.60;;;;;;;;;;4975280;28;20035;-40
2021/07/24 11:09:45;;;;;;;2.67;0.60;;;;;;;;;;4975909;28;20025;-40
2021/07/24 11:12:13;;;;;;;2.72;0.70;;;;;;;;;;4975263;28;20026;-40
2021/07/24 11:14:43;;;;;;;3.15;0.73;;;;;;;;;;4975481;28;20110;-36
2021/07/24 11:17:16;;;;;;;2.80;0.95;;;;;;;;;;4974723;28;20423;-38
2021/07/24 11:19:53;;;;;;;2.85;0.60;;;;;;;;;;4975748;28;20123;-39
2021/07/24 11:22:30;;;;;;;2.03;0.55;;;;;;;;;;4975331;28;20034;-41
2021/07/24 11:24:57;;;;;;;1.95;0.55;;;;;;;;;;4975407;28;20027;-38
2021/07/24 11:27:30;;;;;;;2.13;0.75;;;;;;;;;;4974955;28;20037;-37
2021/07/24 11:30:06;;;;;;;2.90;0.80;;;;;;;;;;4975491;28;20031;-37
2021/07/24 11:32:34;;;;;;;3.42;0.43;;;;;;;;;;4974839;28;20415;-36
2021/07/24 11:35:08;;;;;;;1.88;0.70;;;;;;;;;;4975161;28;20026;-40
2021/07/24 11:37:37;;;;;;;2.95;0.82;;;;;;;;;;4975423;28;20031;-41
2021/07/24 11:40:09;;;;;;;2.67;0.60;;;;;;;;;;4974794;28;20131;-42
2021/07/24 11:42:37;;;;;;;2.00;0.80;;;;;;;;;;4975271;28;20510;-41
2021/07/24 11:45:04;;;;;;;2.25;0.47;;;;;;;;;;4974442;28;20026;-43
2021/07/24 11:47:31;;;;;;;1.73;0.52;;;;;;;;;;4974582;28;20427;-39
2021/07/24 11:50:17;;;;;;;5.18;0.85;;;;;;;;;;4973163;28;20396;-38
2021/07/24 11:52:48;;;;;;;2.00;0.60;;;;;;;;;;4974932;28;20062;-39
2021/07/24 11:55:35;;;;;;;2.25;0.68;;;;;;;;;;4974400;28;20535;-35
2021/07/24 11:58:06;;;;;;;6.50;0.90;;;;;;;;;;4974970;28;20427;-39
2021/07/24 12:00:38;;;;;;;2.45;0.90;;;;;;;;;;4974615;28;20126;-37
2021/07/24 12:03:15;;;;;;;2.80;0.80;;;;;;;;;;4974844;28;20019;-38
2021/07/24 12:05:42;;;;;;;7.78;0.98;;;;;;;;;;4973926;28;20498;-38
2021/07/24 12:08:09;;;;;;;3.17;0.63;;;;;;;;;;4974794;28;20094;-41
2021/07/24 12:10:44;;;;;;;2.55;0.70;;;;;;;;;;4974521;28;20027;-38
2021/07/24 12:13:11;;;;;;;4.55;0.73;;;;;;;;;;4973499;28;20029;-40
2021/07/24 12:15:56;;;;;;;2.20;0.63;;;;;;;;;;4973563;28;20250;-39
2021/07/24 12:18:23;;;;;;;3.67;0.80;;;;;;;;;;4974659;28;20715;-36
2021/07/24 12:20:50;;;;;;;5.82;0.82;;;;;;;;;;4974396;28;20027;-38
2021/07/24 12:23:24;;;;;;;4.15;0.80;;;;;;;;;;4974373;28;20089;-38
2021/07/24 12:26:09;;;;;;;4.10;0.65;;;;;;;;;;4973448;28;20391;-40
2021/07/24 12:28:37;;;;;;;4.13;0.65;;;;;;;;;;4972635;28;20038;-39
2021/07/24 12:31:23;;;;;;;4.63;0.95;;;;;;;;;;4974361;28;20413;-38
2021/07/24 12:33:52;;;;;;;3.25;0.80;;;;;;;;;;4974259;28;20023;-39
2021/07/24 12:36:21;;;;;;;3.25;0.70;;;;;;;;;;4973971;28;20110;-36
2021/07/24 12:38:48;;;;;;;4.32;0.80;;;;;;;;;;4973383;28;20031;-39
2021/07/24 12:41:15;;;;;;;2.72;0.70;;;;;;;;;;4972874;28;20023;-40
2021/07/24 12:43:43;;;;;;;4.20;0.70;;;;;;;;;;4973772;28;20019;-35
2021/07/24 12:46:19;;;;;;;2.08;0.80;;;;;;;;;;4973724;28;20035;-36
2021/07/24 12:48:47;;;;;;;1.85;0.70;;;;;;;;;;4973478;28;20491;-36
2021/07/24 12:51:21;;;;;;;5.78;0.93;;;;;;;;;;4973517;28;20038;-41
2021/07/24 12:53:51;;;;;;;3.15;0.60;;;;;;;;;;4973665;28;20058;-40
2021/07/24 12:56:21;;;;;;;2.90;0.90;;;;;;;;;;4973670;28;20035;-37
2021/07/24 12:58:48;;;;;;;2.63;0.70;;;;;;;;;;4973176;28;20023;-39
2021/07/24 13:01:16;;;;;;;3.05;0.70;;;;;;;;;;4972254;28;20424;-36
2021/07/24 13:03:44;;;;;;;5.40;1.00;;;;;;;;;;4972113;28;20098;-34
2021/07/24 13:06:13;;;;;;;3.63;0.82;;;;;;;;;;4979174;28;20034;-36
2021/07/24 13:08:40;;;;;;;5.40;1.02;;;;;;;;;;4988911;28;20030;-35
2021/07/24 13:11:08;;;;;;;4.95;0.95;;;;;;;;;;4992036;28;20113;-39
2021/07/24 13:13:36;;;;;;;3.28;0.70;;;;;;;;;;4992801;28;20386;-37
2021/07/24 13:16:03;;;;;;;4.93;1.00;;;;;;;;;;4991737;28;20038;-36
2021/07/24 13:18:30;;;;;;;3.42;0.75;;;;;;;;;;4992442;28;20026;-38
2021/07/24 13:20:57;;;;;;;2.63;0.75;;;;;;;;;;4992047;28;20026;-37
2021/07/24 13:23:24;;;;;;;5.70;0.77;;;;;;;;;;4992139;28;20113;-38
2021/07/24 13:28:53;;;;;;;2.05;0.70;;;;;;;;;;4956535;28;20086;-39
2021/07/24 13:31:20;;;;;;;3.65;1.05;;;;;;;;;;4983162;28;20034;-37
2021/07/24 13:33:47;;;;;;;2.17;0.73;;;;;;;;;;4989674;28;20561;-36
2021/07/24 13:36:14;;;;;;;6.72;1.27;;;;;;;;;;4991413;28;20025;-37
2021/07/24 13:38:44;;;;;;;4.55;1.10;;;;;;;;;;4991548;28;20065;-39
2021/07/24 13:41:11;;;;;;;3.88;1.00;;;;;;;;;;4991411;28;20037;-34
2021/07/24 13:43:38;;;;;;;3.70;1.10;;;;;;;;;;4991848;28;20025;-36
2021/07/24 13:46:05;;;;;;;7.22;1.63;;;;;;;;;;4991988;28;20438;-37
2021/07/24 13:48:33;;;;;;;7.07;1.27;;;;;;;;;;4990036;28;21002;-38
2021/07/24 13:51:00;;;;;;;3.20;1.10;;;;;;;;;;4991536;28;20018;-38
2021/07/24 13:53:28;;;;;;;6.20;1.15;;;;;;;;;;4990592;28;20117;-38
2021/07/24 13:55:55;;;;;;;3.92;1.05;;;;;;;;;;4991392;28;20105;-37
2021/07/24 13:58:22;;;;;;;3.90;0.98;;;;;;;;;;4991194;28;20018;-36
2021/07/24 14:00:49;;;;;;;2.38;1.00;;;;;;;;;;4991232;28;20422;-36
2021/07/24 14:03:16;;;;;;;5.50;1.58;;;;;;;;;;4990732;28;20097;-35
2021/07/24 14:05:43;;;;;;;3.75;1.20;;;;;;;;;;4991258;28;20218;-35
2021/07/24 14:08:10;;;;;;;5.10;1.30;;;;;;;;;;4990968;28;20022;-37
2021/07/24 14:10:37;;;;;;;9.43;1.83;;;;;;;;;;4994239;28;20030;-36
2021/07/24 14:13:06;;;;;;;4.93;1.40;;;;;;;;;;4995500;28;20057;-35
2021/07/24 14:15:33;;;;;;;6.55;1.60;;;;;;;;;;4995429;28;20035;-36
2021/07/24 14:18:00;;;;;;;6.03;1.45;;;;;;;;;;4994473;28;20066;-39
2021/07/24 14:20:29;;;;;;;7.10;1.52;;;;;;;;;;4995068;28;20034;-34
2021/07/24 14:22:56;;;;;;;4.18;1.70;;;;;;;;;;4995562;28;20034;-35
2021/07/24 14:25:23;;;;;;;6.30;1.75;;;;;;;;;;4994905;28;20034;-36
2021/07/24 14:27:50;;;;;;;6.18;1.80;;;;;;;;;;4995074;28;20018;-34
2021/07/24 14:30:16;;;;;;;5.18;1.40;;;;;;;;;;4995084;28;20030;-36
2021/07/24 14:32:43;;;;;;;7.60;1.67;;;;;;;;;;4995761;28;20534;-36
2021/07/24 14:35:11;;;;;;;4.95;1.33;;;;;;;;;;4991521;28;20030;-36
2021/07/24 14:37:38;;;;;;;5.10;1.40;;;;;;;;;;4995258;28;20030;-36
2021/07/24 14:40:05;;;;;;;6.25;1.90;;;;;;;;;;4994296;28;20069;-36
2021/07/24 14:42:32;;;;;;;6.78;1.35;;;;;;;;;;4994835;28;20026;-33
2021/07/24 14:45:00;;;;;;;8.93;1.73;;;;;;;;;;4992803;28;20394;-34
2021/07/24 14:47:27;;;;;;;10.38;1.50;;;;;;;;;;4995021;28;20107;-36
2021/07/24 14:49:57;;;;;;;8.93;1.67;;;;;;;;;;4988805;28;20089;-37
2021/07/24 14:52:24;;;;;;;8.80;1.75;;;;;;;;;;4992721;28;20031;-37
2021/07/24 14:54:51;;;;;;;6.57;1.55;;;;;;;;;;4992627;28;20018;-36